Terminal Aerodrome Forecast
Issued by NWS Louisville, KY

Home | Current Version | Previous Version | Text Only | Print | Product List | Glossary On
Versions: 1 2 3 4 5 6 7 8 9 10 11 12 13 14 15 16 17 18
000
FTUS43 KLMK 310500 RRA
TAFLEX
TAF
KLEX 310542Z 3106/0106 20008KT P6SM SCT060
     FM311300 21007KT P6SM SCT015 BKN100
      TEMPO 3113/3116 BKN015
     FM311700 23012KT P6SM SCT025 BKN100
     FM312300 32012KT P6SM SCT035 BKN150=

USA.gov is the U.S. government's official web portal to all federal, state and local government web resources and services.